Time;durP1;ratioP1;P1;durP2;ratioP2;P2;SDS_P1;SDS_P2;PMS_P1;PMS_P2;Temp;Humidity;BMP_temperature;BMP_pressure;BME280_temperature;BME280_humidity;BME280_pressure;Samples;Min_cycle;Max_cycle;Signal;HPM_P1;HPM_P2
2023/06/16 00:00:11;;;;;;;;;;;12.50;99.90;;;;;;5072170;28;20422;-64
2023/06/16 00:02:41;;;;;;;;;;;12.60;99.90;;;;;;5086936;28;19962;-65
2023/06/16 00:05:10;;;;;;;;;;;12.70;99.90;;;;;;5091704;28;19958;-63
2023/06/16 00:07:37;;;;;;;;;;;12.80;99.90;;;;;;5085981;28;19908;-64
2023/06/16 00:10:07;;;;;;;;;;;12.90;99.90;;;;;;5092117;28;19970;-64
2023/06/16 00:12:34;;;;;;;;;;;13.00;99.90;;;;;;5092510;28;19994;-63
2023/06/16 00:15:02;;;;;;;;;;;13.00;99.90;;;;;;5091767;28;19977;-63
2023/06/16 00:17:28;;;;;;;;;;;13.20;99.90;;;;;;5091360;28;20012;-63
2023/06/16 00:19:58;;;;;;;;;;;13.30;99.90;;;;;;5092105;28;19958;-63
2023/06/16 00:22:25;;;;;;;;;;;13.40;99.90;;;;;;5073326;28;20334;-61
2023/06/16 00:24:52;;;;;;;;;;;13.50;99.90;;;;;;5091865;28;19918;-63
2023/06/16 00:27:24;;;;;;;;;;;13.60;99.90;;;;;;5092070;28;19912;-63
2023/06/16 00:29:51;;;;;;;;;;;13.60;99.90;;;;;;5092234;28;19908;-62
2023/06/16 00:32:17;;;;;;;;;;;13.70;99.90;;;;;;5071638;28;19908;-62
2023/06/16 00:34:46;;;;;;;;;;;13.80;99.90;;;;;;5071124;28;19908;-62
2023/06/16 00:37:12;;;;;;;;;;;13.90;99.90;;;;;;5072012;28;19978;-62
2023/06/16 00:39:39;;;;;;;;;;;14.00;99.90;;;;;;5071514;28;19912;-62
2023/06/16 00:42:06;;;;;;;;;;;14.10;99.90;;;;;;5071411;28;20011;-62
2023/06/16 00:44:37;;;;;;;;;;;14.20;99.90;;;;;;5072595;28;20120;-63
2023/06/16 00:47:04;;;;;;;;;;;14.30;99.90;;;;;;5091975;28;19913;-63
2023/06/16 00:49:30;;;;;;;;;;;14.40;99.90;;;;;;5091371;28;19912;-63
2023/06/16 00:51:57;;;;;;;;;;;14.40;99.90;;;;;;5092225;28;19912;-64
2023/06/16 00:54:27;;;;;;;;;;;14.50;99.90;;;;;;5071639;28;21002;-63
2023/06/16 00:56:53;;;;;;;;;;;14.70;99.90;;;;;;5091052;28;19916;-63
2023/06/16 00:59:24;;;;;;;;;;;14.70;99.90;;;;;;5091133;28;19908;-62
2023/06/16 01:01:52;;;;;;;;;;;14.80;99.90;;;;;;5092075;28;19915;-61
2023/06/16 01:04:20;;;;;;;;;;;14.90;99.90;;;;;;5074687;28;19923;-63
2023/06/16 01:06:50;;;;;;;;;;;14.90;99.90;;;;;;5078353;28;20372;-65
2023/06/16 01:09:35;;;;;;;;;;;15.00;99.80;;;;;;5083720;28;19923;-63
2023/06/16 01:12:22;;;;;;;;;;;15.10;99.80;;;;;;5090130;28;20304;-65
2023/06/16 01:14:54;;;;;;;;;;;15.30;99.70;;;;;;5059217;28;20340;-63
2023/06/16 01:17:22;;;;;;;;;;;15.30;99.60;;;;;;5094111;28;20369;-64
2023/06/16 01:19:53;;;;;;;;;;;15.40;99.30;;;;;;5091023;28;19908;-62
2023/06/16 01:22:32;;;;;;;;;;;15.50;99.00;;;;;;5091944;28;20508;-66
2023/06/16 01:25:03;;;;;;;;;;;15.50;98.80;;;;;;5077551;28;19919;-61
2023/06/16 01:27:31;;;;;;;;;;;15.60;98.70;;;;;;5079251;28;19908;-61
2023/06/16 01:29:58;;;;;;;;;;;15.80;98.60;;;;;;5088107;28;20357;-64
2023/06/16 01:32:26;;;;;;;;;;;15.90;98.50;;;;;;5076456;28;19912;-64
2023/06/16 01:34:53;;;;;;;;;;;15.80;98.30;;;;;;5082987;28;20334;-65
2023/06/16 01:37:20;;;;;;;;;;;15.90;98.30;;;;;;5082724;28;19912;-63
2023/06/16 01:39:47;;;;;;;;;;;16.00;98.30;;;;;;5079354;28;20373;-61
2023/06/16 01:42:15;;;;;;;;;;;16.10;98.00;;;;;;5082986;28;20277;-64
2023/06/16 01:44:42;;;;;;;;;;;16.20;98.00;;;;;;5083813;28;19919;-63
2023/06/16 01:47:10;;;;;;;;;;;16.30;97.80;;;;;;5085284;28;19908;-63
2023/06/16 01:49:36;;;;;;;;;;;16.30;97.60;;;;;;5091293;28;20049;-62
2023/06/16 01:52:04;;;;;;;;;;;16.40;97.70;;;;;;5092613;28;19973;-61
2023/06/16 01:54:30;;;;;;;;;;;16.50;97.30;;;;;;5085876;28;19998;-63
2023/06/16 01:56:57;;;;;;;;;;;16.60;97.10;;;;;;5093473;28;19912;-63
2023/06/16 01:59:24;;;;;;;;;;;16.80;97.10;;;;;;5088610;28;20369;-62
2023/06/16 02:01:53;;;;;;;;;;;16.80;96.90;;;;;;5084831;28;20380;-62
2023/06/16 02:04:23;;;;;;;;;;;16.90;96.70;;;;;;5091382;28;19912;-62
2023/06/16 02:06:50;;;;;;;;;;;17.00;96.70;;;;;;5060831;28;20044;-63
2023/06/16 02:09:17;;;;;;;;;;;17.00;96.30;;;;;;5082118;28;19912;-63
2023/06/16 02:11:44;;;;;;;;;;;17.10;96.30;;;;;;5086218;28;20011;-64
2023/06/16 02:14:11;;;;;;;;;;;17.10;96.30;;;;;;5094513;28;19965;-64
2023/06/16 02:16:44;;;;;;;;;;;17.10;96.30;;;;;;5075460;28;19920;-63
2023/06/16 02:19:14;;;;;;;;;;;17.10;96.20;;;;;;5075959;28;19944;-62
2023/06/16 02:21:41;;;;;;;;;;;17.10;96.10;;;;;;5060857;28;19966;-61
2023/06/16 02:24:08;;;;;;;;;;;17.20;96.00;;;;;;5076962;28;19912;-62
2023/06/16 02:26:37;;;;;;;;;;;17.20;95.60;;;;;;5094644;28;19970;-62
2023/06/16 02:29:03;;;;;;;;;;;17.30;95.50;;;;;;5092796;28;20368;-61
2023/06/16 02:31:30;;;;;;;;;;;17.40;95.50;;;;;;5089113;28;20293;-64
2023/06/16 02:33:57;;;;;;;;;;;17.70;94.80;;;;;;5091226;28;19959;-64
2023/06/16 02:36:26;;;;;;;;;;;17.80;94.50;;;;;;5090977;28;19919;-62
2023/06/16 02:38:53;;;;;;;;;;;17.80;94.20;;;;;;5093719;28;19994;-63
2023/06/16 02:41:20;;;;;;;;;;;17.80;94.30;;;;;;5094249;28;20011;-65
2023/06/16 02:43:46;;;;;;;;;;;17.80;94.20;;;;;;5093296;28;19920;-62
2023/06/16 02:46:13;;;;;;;;;;;17.70;94.40;;;;;;5094267;28;19908;-62
2023/06/16 02:48:40;;;;;;;;;;;17.60;94.40;;;;;;5093623;28;19908;-64
2023/06/16 02:51:06;;;;;;;;;;;17.70;94.70;;;;;;5094232;28;19970;-62
2023/06/16 02:53:33;;;;;;;;;;;17.80;94.30;;;;;;5092920;28;19916;-63
2023/06/16 02:56:00;;;;;;;;;;;17.90;94.20;;;;;;5109520;28;19912;-63
2023/06/16 02:58:26;;;;;;;;;;;18.20;94.00;;;;;;5103723;28;20273;-63
2023/06/16 03:00:53;;;;;;;;;;;18.70;93.30;;;;;;5092346;28;19912;-62
2023/06/16 03:03:20;;;;;;;;;;;19.20;91.70;;;;;;5089422;28;19919;-62
2023/06/16 03:05:46;;;;;;;;;;;19.90;91.70;;;;;;5074561;28;19919;-62
2023/06/16 03:08:13;;;;;;;;;;;20.70;90.70;;;;;;5073293;28;19919;-64
2023/06/16 03:10:39;;;;;;;;;;;21.00;89.10;;;;;;5079419;28;20407;-63
2023/06/16 03:13:06;;;;;;;;;;;21.00;88.40;;;;;;5077744;28;19959;-62
2023/06/16 03:15:33;;;;;;;;;;;20.70;88.60;;;;;;5089641;28;20002;-63
2023/06/16 03:17:59;;;;;;;;;;;20.60;88.80;;;;;;5087877;28;19908;-65
2023/06/16 03:20:26;;;;;;;;;;;20.60;89.10;;;;;;5085223;28;20381;-62
2023/06/16 03:22:52;;;;;;;;;;;20.70;88.40;;;;;;5072729;28;19924;-65
2023/06/16 03:25:21;;;;;;;;;;;21.30;88.00;;;;;;5075092;28;19920;-63
2023/06/16 03:27:47;;;;;;;;;;;22.40;85.00;;;;;;5080714;28;19955;-62
2023/06/16 03:30:14;;;;;;;;;;;23.30;81.80;;;;;;5082334;28;19913;-65
2023/06/16 03:32:44;;;;;;;;;;;23.70;80.40;;;;;;5080025;28;19919;-64
2023/06/16 03:35:12;;;;;;;;;;;24.30;80.20;;;;;;5084199;28;19912;-63
2023/06/16 03:37:38;;;;;;;;;;;25.60;77.00;;;;;;5090581;28;19918;-63
2023/06/16 03:40:06;;;;;;;;;;;26.80;73.80;;;;;;5087582;28;19999;-63
2023/06/16 03:42:33;;;;;;;;;;;28.30;71.50;;;;;;5088090;28;19921;-64
2023/06/16 03:44:59;;;;;;;;;;;29.80;67.40;;;;;;5086614;28;20011;-64
2023/06/16 03:47:26;;;;;;;;;;;31.10;63.70;;;;;;5092011;28;19908;-62
2023/06/16 03:49:53;;;;;;;;;;;32.00;61.20;;;;;;5084379;28;19959;-63
2023/06/16 03:52:20;;;;;;;;;;;32.20;59.50;;;;;;5075827;28;19965;-62
2023/06/16 03:54:47;;;;;;;;;;;32.50;58.50;;;;;;5090388;28;20342;-62
2023/06/16 03:57:13;;;;;;;;;;;32.70;56.90;;;;;;5081078;28;19915;-64
2023/06/16 03:59:40;;;;;;;;;;;32.30;58.30;;;;;;5076155;28;19994;-63
2023/06/16 04:02:07;;;;;;;;;;;32.10;57.60;;;;;;5076866;28;19920;-63
2023/06/16 04:04:37;;;;;;;;;;;32.30;57.00;;;;;;5071974;28;20018;-63
2023/06/16 04:07:04;;;;;;;;;;;31.80;56.60;;;;;;5092454;28;20383;-61
2023/06/16 04:09:31;;;;;;;;;;;30.50;58.10;;;;;;5091555;28;19981;-61
2023/06/16 04:11:57;;;;;;;;;;;29.10;59.20;;;;;;5090066;28;19912;-63
2023/06/16 04:14:24;;;;;;;;;;;27.70;61.40;;;;;;5089696;28;20379;-63
2023/06/16 04:16:51;;;;;;;;;;;26.40;63.00;;;;;;5090124;28;19908;-62
2023/06/16 04:19:20;;;;;;;;;;;25.10;65.20;;;;;;5083267;28;19951;-63
2023/06/16 04:21:47;;;;;;;;;;;24.00;67.90;;;;;;5104133;28;19912;-64
2023/06/16 04:24:14;;;;;;;;;;;23.20;69.60;;;;;;5076858;28;20346;-63
2023/06/16 04:26:43;;;;;;;;;;;22.40;71.70;;;;;;5072915;28;19916;-65
2023/06/16 04:29:14;;;;;;;;;;;21.60;73.80;;;;;;5088224;28;19977;-62
2023/06/16 04:31:42;;;;;;;;;;;21.10;75.00;;;;;;5073404;28;19916;-63
2023/06/16 04:34:12;;;;;;;;;;;20.80;75.90;;;;;;5078173;28;19908;-61
2023/06/16 04:36:44;;;;;;;;;;;20.70;76.60;;;;;;5075040;28;19920;-61
2023/06/16 04:39:14;;;;;;;;;;;20.60;76.00;;;;;;5110213;28;20368;-64
2023/06/16 04:41:42;;;;;;;;;;;20.40;76.30;;;;;;5109371;28;19920;-63
2023/06/16 04:44:09;;;;;;;;;;;20.30;76.80;;;;;;5079971;28;19950;-63
2023/06/16 04:46:37;;;;;;;;;;;20.10;77.50;;;;;;5085931;28;19919;-64
2023/06/16 04:49:03;;;;;;;;;;;20.10;78.80;;;;;;5091588;28;19909;-64
2023/06/16 04:51:30;;;;;;;;;;;20.10;78.90;;;;;;5091900;28;19913;-63
2023/06/16 04:53:58;;;;;;;;;;;20.10;78.10;;;;;;5089421;28;19908;-63
2023/06/16 04:56:24;;;;;;;;;;;20.00;79.00;;;;;;5087143;28;19916;-62
2023/06/16 04:58:51;;;;;;;;;;;20.00;79.50;;;;;;5091400;28;19912;-64
2023/06/16 05:01:18;;;;;;;;;;;20.10;79.80;;;;;;5090716;28;19919;-63
2023/06/16 05:03:44;;;;;;;;;;;20.10;78.90;;;;;;5086309;28;19924;-63
2023/06/16 05:06:11;;;;;;;;;;;20.20;79.60;;;;;;5060978;28;19936;-64
2023/06/16 05:08:38;;;;;;;;;;;20.30;79.70;;;;;;5071266;28;19932;-60
2023/06/16 05:11:04;;;;;;;;;;;20.30;79.20;;;;;;5071574;28;19916;-62
2023/06/16 05:13:31;;;;;;;;;;;20.50;79.80;;;;;;5089393;28;19916;-63
2023/06/16 05:15:57;;;;;;;;;;;20.70;79.50;;;;;;5091484;28;20357;-61
2023/06/16 05:18:24;;;;;;;;;;;20.70;80.40;;;;;;5090854;28;19915;-63
2023/06/16 05:20:51;;;;;;;;;;;20.50;81.80;;;;;;5094164;28;19916;-61
2023/06/16 05:23:17;;;;;;;;;;;20.40;83.30;;;;;;5094599;28;19917;-64
2023/06/16 05:25:45;;;;;;;;;;;20.20;84.70;;;;;;5094158;28;19908;-64
2023/06/16 05:28:11;;;;;;;;;;;20.00;85.20;;;;;;5094347;28;19918;-64
2023/06/16 05:30:38;;;;;;;;;;;19.90;86.00;;;;;;5083750;28;19912;-62
2023/06/16 05:33:05;;;;;;;;;;;19.90;86.60;;;;;;5075305;28;19915;-62
2023/06/16 05:35:31;;;;;;;;;;;20.00;85.70;;;;;;5088792;28;20280;-64
2023/06/16 05:37:58;;;;;;;;;;;20.10;85.50;;;;;;5093087;28;19955;-63
2023/06/16 05:40:25;;;;;;;;;;;20.30;86.60;;;;;;5079711;28;19916;-65
2023/06/16 05:42:51;;;;;;;;;;;20.40;85.10;;;;;;5076257;28;20300;-63
2023/06/16 05:45:18;;;;;;;;;;;20.50;83.80;;;;;;5089078;28;19923;-63
2023/06/16 05:47:45;;;;;;;;;;;20.60;83.80;;;;;;5080385;28;19958;-64
2023/06/16 05:50:11;;;;;;;;;;;20.60;84.80;;;;;;5090905;28;19966;-63
2023/06/16 05:52:38;;;;;;;;;;;20.60;84.00;;;;;;5087758;28;20356;-64
2023/06/16 05:55:05;;;;;;;;;;;20.50;83.70;;;;;;5083245;28;19977;-64
2023/06/16 05:57:32;;;;;;;;;;;20.50;84.70;;;;;;5082516;28;19909;-63
2023/06/16 05:59:59;;;;;;;;;;;20.60;83.70;;;;;;5094031;28;19927;-64
2023/06/16 06:02:26;;;;;;;;;;;20.90;84.60;;;;;;5094292;28;19920;-63
2023/06/16 06:04:52;;;;;;;;;;;21.30;82.70;;;;;;5093310;28;19912;-63
2023/06/16 06:07:19;;;;;;;;;;;21.70;82.00;;;;;;5094616;28;19914;-62
2023/06/16 06:09:46;;;;;;;;;;;22.10;80.40;;;;;;5094677;28;20277;-65
2023/06/16 06:12:12;;;;;;;;;;;22.40;79.90;;;;;;5095253;28;19912;-63
2023/06/16 06:14:39;;;;;;;;;;;22.20;78.60;;;;;;5086860;28;20389;-63
2023/06/16 06:17:06;;;;;;;;;;;21.80;79.90;;;;;;5089323;28;19927;-62
2023/06/16 06:19:32;;;;;;;;;;;21.40;81.20;;;;;;5093637;28;20024;-64
2023/06/16 06:21:59;;;;;;;;;;;20.90;81.60;;;;;;5088038;28;19920;-62
2023/06/16 06:24:26;;;;;;;;;;;20.30;83.50;;;;;;5078520;28;20368;-63
2023/06/16 06:26:52;;;;;;;;;;;19.80;84.40;;;;;;5081618;28;19919;-62
2023/06/16 06:29:19;;;;;;;;;;;19.40;85.80;;;;;;5089817;28;19974;-63
2023/06/16 06:31:45;;;;;;;;;;;19.10;87.50;;;;;;5093947;28;19916;-65
2023/06/16 06:34:12;;;;;;;;;;;18.80;88.00;;;;;;5090792;28;19915;-62
2023/06/16 06:36:42;;;;;;;;;;;18.40;89.00;;;;;;5074110;28;20354;-63
2023/06/16 06:39:11;;;;;;;;;;;18.20;90.10;;;;;;5074097;28;19909;-62
2023/06/16 06:41:40;;;;;;;;;;;17.90;90.50;;;;;;5073847;28;19927;-61
2023/06/16 06:44:06;;;;;;;;;;;17.70;90.90;;;;;;5076667;28;19928;-64
2023/06/16 06:46:33;;;;;;;;;;;17.40;91.20;;;;;;5092283;28;20296;-63
2023/06/16 06:49:00;;;;;;;;;;;17.20;91.80;;;;;;5092662;28;19908;-62
2023/06/16 06:51:27;;;;;;;;;;;17.00;92.10;;;;;;5092442;28;20347;-62
2023/06/16 06:53:55;;;;;;;;;;;16.90;92.70;;;;;;5092709;28;19912;-63
2023/06/16 06:56:22;;;;;;;;;;;16.70;92.90;;;;;;5092920;28;20001;-63
2023/06/16 06:58:49;;;;;;;;;;;16.50;93.50;;;;;;5073329;28;19912;-63
2023/06/16 07:01:16;;;;;;;;;;;16.40;93.90;;;;;;5086972;28;19957;-62
2023/06/16 07:03:42;;;;;;;;;;;16.20;94.40;;;;;;5093532;28;19931;-63
2023/06/16 07:06:10;;;;;;;;;;;16.20;94.90;;;;;;5093087;28;20379;-63
2023/06/16 07:08:36;;;;;;;;;;;16.00;95.40;;;;;;5091382;28;19916;-63
2023/06/16 07:11:03;;;;;;;;;;;15.80;95.80;;;;;;5092749;28;20003;-62
2023/06/16 07:13:29;;;;;;;;;;;15.70;96.40;;;;;;5093046;28;20303;-63
2023/06/16 07:15:56;;;;;;;;;;;15.60;96.90;;;;;;5075058;28;20466;-62
2023/06/16 07:18:23;;;;;;;;;;;15.40;97.30;;;;;;5090684;28;20004;-61
2023/06/16 07:20:49;;;;;;;;;;;15.30;97.80;;;;;;5093009;28;19915;-65
2023/06/16 07:23:16;;;;;;;;;;;15.20;98.50;;;;;;5093246;28;19929;-61
2023/06/16 07:25:43;;;;;;;;;;;15.00;98.90;;;;;;5077024;28;20288;-62
2023/06/16 07:28:09;;;;;;;;;;;15.00;99.40;;;;;;5088147;28;19908;-64
2023/06/16 07:30:36;;;;;;;;;;;14.90;99.90;;;;;;5092717;28;19912;-62
2023/06/16 07:33:03;;;;;;;;;;;14.80;99.90;;;;;;5091127;28;19916;-62
2023/06/16 07:35:29;;;;;;;;;;;14.70;99.90;;;;;;5093446;28;19912;-61
2023/06/16 07:37:56;;;;;;;;;;;14.70;99.90;;;;;;5093286;28;19958;-62
2023/06/16 07:40:23;;;;;;;;;;;14.50;99.90;;;;;;5093302;28;19966;-62
2023/06/16 07:42:50;;;;;;;;;;;14.40;99.90;;;;;;5085069;28;19920;-62
2023/06/16 07:45:17;;;;;;;;;;;14.30;99.90;;;;;;5073014;28;19909;-62
2023/06/16 07:47:45;;;;;;;;;;;14.30;99.90;;;;;;5084118;28;20272;-61
2023/06/16 07:50:13;;;;;;;;;;;14.30;99.90;;;;;;5077558;28;19912;-62
2023/06/16 07:52:41;;;;;;;;;;;14.20;99.90;;;;;;5085421;28;20408;-65
2023/06/16 07:55:09;;;;;;;;;;;14.20;99.90;;;;;;5092555;28;19908;-63
2023/06/16 07:57:38;;;;;;;;;;;14.10;99.90;;;;;;5088487;28;19955;-61
2023/06/16 08:00:08;;;;;;;;;;;14.10;99.90;;;;;;5072733;28;19912;-61
2023/06/16 08:02:35;;;;;;;;;;;14.00;99.90;;;;;;5078878;28;19920;-62
2023/06/16 08:05:02;;;;;;;;;;;14.00;99.90;;;;;;5091868;28;19912;-61
2023/06/16 08:07:28;;;;;;;;;;;14.00;99.90;;;;;;5092479;28;19923;-62
2023/06/16 08:09:55;;;;;;;;;;;14.00;99.90;;;;;;5079890;28;19936;-62
2023/06/16 08:12:21;;;;;;;;;;;13.90;99.90;;;;;;5081230;28;19919;-61
2023/06/16 08:14:48;;;;;;;;;;;13.90;99.90;;;;;;5092348;28;19931;-61
2023/06/16 08:17:15;;;;;;;;;;;13.80;99.90;;;;;;5092099;28;20004;-61
2023/06/16 08:19:41;;;;;;;;;;;13.80;99.90;;;;;;5092447;28;19908;-61
2023/06/16 08:22:08;;;;;;;;;;;13.80;99.90;;;;;;5081957;28;19931;-64
2023/06/16 08:24:35;;;;;;;;;;;13.70;99.90;;;;;;5092329;28;19947;-63
2023/06/16 08:27:02;;;;;;;;;;;13.70;99.90;;;;;;5092393;28;19951;-63
2023/06/16 08:29:30;;;;;;;;;;;13.60;99.90;;;;;;5084611;28;19966;-61
2023/06/16 08:31:57;;;;;;;;;;;13.60;99.90;;;;;;5071621;28;20435;-62
2023/06/16 08:34:23;;;;;;;;;;;13.50;99.90;;;;;;5091647;28;19970;-61
2023/06/16 08:36:50;;;;;;;;;;;13.50;99.90;;;;;;5091826;28;20006;-61
2023/06/16 08:39:17;;;;;;;;;;;13.50;99.90;;;;;;5091387;28;19912;-61
2023/06/16 08:41:44;;;;;;;;;;;13.50;99.90;;;;;;5083596;28;19925;-62
2023/06/16 08:44:13;;;;;;;;;;;13.40;99.90;;;;;;5089007;28;19927;-61
2023/06/16 08:46:39;;;;;;;;;;;13.40;99.90;;;;;;5091418;28;19908;-61
2023/06/16 08:49:06;;;;;;;;;;;13.30;99.90;;;;;;5092158;28;19971;-60
2023/06/16 08:51:34;;;;;;;;;;;13.40;99.90;;;;;;5085253;28;19912;-61
2023/06/16 08:54:03;;;;;;;;;;;13.30;99.90;;;;;;5086321;28;20003;-61
2023/06/16 08:56:32;;;;;;;;;;;13.20;99.90;;;;;;5075033;28;19919;-62
2023/06/16 08:59:06;;;;;;;;;;;13.30;99.90;;;;;;5091665;28;20380;-62
2023/06/16 09:01:39;;;;;;;;;;;13.20;99.90;;;;;;5090584;28;20010;-63
2023/06/16 09:04:09;;;;;;;;;;;13.10;99.90;;;;;;5092247;28;19916;-63
2023/06/16 09:06:36;;;;;;;;;;;13.20;99.90;;;;;;5077964;28;19944;-62
2023/06/16 09:09:03;;;;;;;;;;;13.00;99.90;;;;;;5071882;28;19977;-63
2023/06/16 09:11:30;;;;;;;;;;;13.00;99.90;;;;;;5072356;28;20376;-64
2023/06/16 09:13:56;;;;;;;;;;;13.00;99.90;;;;;;5070639;28;19917;-64
2023/06/16 09:16:24;;;;;;;;;;;12.90;99.90;;;;;;5069158;28;20328;-62
2023/06/16 09:18:51;;;;;;;;;;;12.90;99.90;;;;;;5069916;28;20364;-63
2023/06/16 09:21:22;;;;;;;;;;;12.90;99.90;;;;;;5070115;28;19912;-63
2023/06/16 09:23:58;;;;;;;;;;;12.80;99.90;;;;;;5070506;28;19916;-63
2023/06/16 09:26:30;;;;;;;;;;;12.80;99.90;;;;;;5069882;28;19912;-64
2023/06/16 09:28:57;;;;;;;;;;;12.80;99.90;;;;;;5070007;28;19916;-62
2023/06/16 09:31:26;;;;;;;;;;;12.70;99.90;;;;;;5070726;28;19909;-62
2023/06/16 09:33:52;;;;;;;;;;;12.70;99.90;;;;;;5072062;28;19936;-61
2023/06/16 09:36:28;;;;;;;;;;;12.70;99.90;;;;;;5072129;28;20400;-62
2023/06/16 09:38:55;;;;;;;;;;;12.60;99.90;;;;;;5071877;28;20377;-63
2023/06/16 09:41:22;;;;;;;;;;;12.60;99.90;;;;;;5073240;28;19967;-62
2023/06/16 09:43:49;;;;;;;;;;;12.50;99.90;;;;;;5090613;28;20368;-62
2023/06/16 09:46:16;;;;;;;;;;;12.50;99.90;;;;;;5086771;28;19916;-62
2023/06/16 09:48:47;;;;;;;;;;;12.60;99.90;;;;;;5070120;28;19908;-62
2023/06/16 09:51:31;;;;;;;;;;;12.50;99.90;;;;;;5071654;28;19908;-61
2023/06/16 09:53:58;;;;;;;;;;;12.50;99.90;;;;;;5071762;28;19909;-62
2023/06/16 09:56:26;;;;;;;;;;;12.40;99.90;;;;;;5071898;28;20277;-62
2023/06/16 09:58:53;;;;;;;;;;;12.40;99.90;;;;;;5071937;28;20327;-62
2023/06/16 10:01:24;;;;;;;;;;;12.30;99.90;;;;;;5072998;28;19913;-63
2023/06/16 10:03:52;;;;;;;;;;;12.30;99.90;;;;;;5071726;28;20030;-62
2023/06/16 10:06:19;;;;;;;;;;;12.30;99.90;;;;;;5072833;28;19909;-62
2023/06/16 10:08:49;;;;;;;;;;;12.30;99.90;;;;;;5075073;28;19909;-63
2023/06/16 10:11:17;;;;;;;;;;;12.20;99.90;;;;;;5075303;28;19916;-64
2023/06/16 10:13:48;;;;;;;;;;;12.20;99.90;;;;;;5075186;28;19915;-63
2023/06/16 10:16:15;;;;;;;;;;;12.10;99.90;;;;;;5075153;28;19920;-63
2023/06/16 10:18:42;;;;;;;;;;;12.10;99.90;;;;;;5074757;28;19981;-63
2023/06/16 10:21:10;;;;;;;;;;;12.00;99.90;;;;;;5075198;28;19908;-63
2023/06/16 10:23:37;;;;;;;;;;;12.10;99.90;;;;;;5075081;28;20007;-63
2023/06/16 10:26:05;;;;;;;;;;;12.00;99.90;;;;;;5074972;28;19908;-64
2023/06/16 10:28:33;;;;;;;;;;;12.00;99.90;;;;;;5092372;28;19916;-62
2023/06/16 10:31:00;;;;;;;;;;;12.00;99.90;;;;;;5094973;28;19912;-62
2023/06/16 10:33:28;;;;;;;;;;;12.00;99.90;;;;;;5095303;28;19909;-63
2023/06/16 10:36:02;;;;;;;;;;;12.00;99.90;;;;;;5095333;28;19916;-62
2023/06/16 10:38:35;;;;;;;;;;;11.90;99.90;;;;;;5095107;28;19915;-63
2023/06/16 10:41:06;;;;;;;;;;;11.90;99.90;;;;;;5094918;28;19916;-61
2023/06/16 10:43:32;;;;;;;;;;;11.90;99.90;;;;;;5094837;28;19920;-62
2023/06/16 10:46:13;;;;;;;;;;;11.90;99.90;;;;;;5094981;28;19908;-63
2023/06/16 10:48:55;;;;;;;;;;;11.90;99.90;;;;;;5094264;28;19912;-63
2023/06/16 10:51:41;;;;;;;;;;;11.80;99.90;;;;;;5094843;28;19912;-63
2023/06/16 10:54:08;;;;;;;;;;;11.80;99.90;;;;;;5094798;28;19995;-64
2023/06/16 10:57:07;;;;;;;;;;;11.80;99.90;;;;;;5094378;28;19916;-63
2023/06/16 10:59:52;;;;;;;;;;;11.80;99.90;;;;;;5060601;28;19908;-63
2023/06/16 11:02:21;;;;;;;;;;;11.70;99.90;;;;;;5094601;28;19915;-63
2023/06/16 11:05:05;;;;;;;;;;;11.70;99.90;;;;;;5094558;28;19912;-63
2023/06/16 11:07:32;;;;;;;;;;;11.70;99.90;;;;;;5094526;28;19908;-62
2023/06/16 11:09:58;;;;;;;;;;;11.70;99.90;;;;;;5094654;28;20519;-62
2023/06/16 11:12:25;;;;;;;;;;;11.60;99.90;;;;;;5095143;28;19954;-63
2023/06/16 11:14:52;;;;;;;;;;;11.60;99.90;;;;;;5093623;28;19963;-62
2023/06/16 11:17:19;;;;;;;;;;;11.60;99.90;;;;;;5079089;28;20060;-63
2023/06/16 11:19:51;;;;;;;;;;;11.50;99.90;;;;;;5074272;28;19916;-64
2023/06/16 11:22:26;;;;;;;;;;;11.50;99.90;;;;;;5073980;28;19908;-62
2023/06/16 11:24:53;;;;;;;;;;;11.40;99.90;;;;;;5074057;28;19917;-62
2023/06/16 11:27:20;;;;;;;;;;;11.50;99.90;;;;;;5073790;28;19909;-63
2023/06/16 11:29:47;;;;;;;;;;;11.40;99.90;;;;;;5073628;28;19974;-64
2023/06/16 11:32:14;;;;;;;;;;;11.30;99.90;;;;;;5073715;28;19940;-64
2023/06/16 11:34:41;;;;;;;;;;;11.30;99.90;;;;;;5082797;28;19913;-63
2023/06/16 11:37:08;;;;;;;;;;;11.30;99.90;;;;;;5093622;28;19947;-63
2023/06/16 11:39:44;;;;;;;;;;;11.30;99.90;;;;;;5093792;28;19908;-63
2023/06/16 11:42:14;;;;;;;;;;;11.20;99.90;;;;;;5093583;28;19966;-63
2023/06/16 11:44:41;;;;;;;;;;;11.30;99.90;;;;;;5093766;28;19923;-63
2023/06/16 11:47:09;;;;;;;;;;;11.20;99.90;;;;;;5093766;28;20003;-62
2023/06/16 11:49:36;;;;;;;;;;;11.20;99.90;;;;;;5085883;28;19916;-63
2023/06/16 11:52:07;;;;;;;;;;;11.20;99.90;;;;;;5073305;28;20007;-63
2023/06/16 11:54:34;;;;;;;;;;;11.10;99.90;;;;;;5073391;28;19952;-62
2023/06/16 11:57:01;;;;;;;;;;;11.10;99.90;;;;;;5073240;28;19965;-63
2023/06/16 11:59:32;;;;;;;;;;;11.10;99.90;;;;;;5073309;28;19916;-65
2023/06/16 12:02:00;;;;;;;;;;;11.10;99.90;;;;;;5073124;28;19909;-62
2023/06/16 12:04:27;;;;;;;;;;;11.00;99.90;;;;;;5073473;28;20380;-63
2023/06/16 12:06:56;;;;;;;;;;;11.00;99.90;;;;;;5073191;28;19913;-61
2023/06/16 12:09:35;;;;;;;;;;;10.90;99.90;;;;;;5073211;28;19920;-62
2023/06/16 12:12:05;;;;;;;;;;;11.00;99.90;;;;;;5091139;28;19912;-61
2023/06/16 12:14:35;;;;;;;;;;;10.90;99.90;;;;;;5092815;28;19912;-63
2023/06/16 12:17:03;;;;;;;;;;;10.90;99.90;;;;;;5074754;28;19912;-64
2023/06/16 12:19:29;;;;;;;;;;;10.90;99.90;;;;;;5085041;28;19912;-63
2023/06/16 12:22:00;;;;;;;;;;;10.90;99.90;;;;;;5090669;28;20064;-63
2023/06/16 12:24:27;;;;;;;;;;;10.90;99.90;;;;;;5091965;28;20377;-62
2023/06/16 12:26:54;;;;;;;;;;;10.90;99.90;;;;;;5090329;28;19923;-63
2023/06/16 12:29:21;;;;;;;;;;;10.90;99.90;;;;;;5091887;28;20380;-63
2023/06/16 12:31:55;;;;;;;;;;;10.80;99.90;;;;;;5091270;28;20011;-62
2023/06/16 12:34:25;;;;;;;;;;;10.80;99.90;;;;;;5089876;28;19912;-64
2023/06/16 12:37:00;;;;;;;;;;;10.80;99.90;;;;;;5091915;28;19920;-64
2023/06/16 12:39:27;;;;;;;;;;;10.80;99.90;;;;;;5092298;28;19908;-63
2023/06/16 12:41:57;;;;;;;;;;;10.70;99.90;;;;;;5092243;28;19924;-63
2023/06/16 12:44:23;;;;;;;;;;;10.70;99.90;;;;;;5092295;28;19916;-63
2023/06/16 12:46:51;;;;;;;;;;;10.70;99.90;;;;;;5087543;28;19912;-64
2023/06/16 12:49:19;;;;;;;;;;;10.60;99.90;;;;;;5090207;28;19915;-64
2023/06/16 12:51:45;;;;;;;;;;;10.60;99.90;;;;;;5090908;28;20278;-62
2023/06/16 12:54:12;;;;;;;;;;;10.60;99.90;;;;;;5091633;28;19919;-62
2023/06/16 12:56:39;;;;;;;;;;;10.50;99.90;;;;;;5091601;28;19909;-63
2023/06/16 12:59:05;;;;;;;;;;;10.50;99.90;;;;;;5089958;28;20289;-62
2023/06/16 13:01:32;;;;;;;;;;;10.50;99.90;;;;;;5091655;28;19916;-62
2023/06/16 13:03:59;;;;;;;;;;;10.40;99.90;;;;;;5091485;28;20003;-62
2023/06/16 13:06:25;;;;;;;;;;;10.40;99.90;;;;;;5091586;28;19908;-63
2023/06/16 13:08:52;;;;;;;;;;;10.40;99.90;;;;;;5092285;28;20037;-63
2023/06/16 13:11:19;;;;;;;;;;;10.40;99.90;;;;;;5092116;28;19912;-62
2023/06/16 13:13:46;;;;;;;;;;;10.40;99.90;;;;;;5091529;28;19961;-62
2023/06/16 13:16:12;;;;;;;;;;;10.40;99.90;;;;;;5087521;28;20043;-62
2023/06/16 13:18:39;;;;;;;;;;;10.40;99.90;;;;;;5092167;28;20330;-62
2023/06/16 13:21:06;;;;;;;;;;;10.40;99.90;;;;;;5095041;28;19915;-62
2023/06/16 13:23:32;;;;;;;;;;;10.40;99.90;;;;;;5099004;28;19928;-63
2023/06/16 13:25:59;;;;;;;;;;;10.30;99.90;;;;;;5091627;28;19908;-64
2023/06/16 13:28:26;;;;;;;;;;;10.30;99.90;;;;;;5077980;28;19912;-63
2023/06/16 13:30:52;;;;;;;;;;;10.30;99.90;;;;;;5071893;28;20428;-61
2023/06/16 13:33:19;;;;;;;;;;;10.30;99.90;;;;;;5072018;28;19987;-61
2023/06/16 13:35:46;;;;;;;;;;;10.20;99.90;;;;;;5088261;28;20254;-63
2023/06/16 13:38:12;;;;;;;;;;;10.20;99.90;;;;;;5089122;28;19909;-63
2023/06/16 13:40:39;;;;;;;;;;;10.20;99.90;;;;;;5078369;28;19913;-62
2023/06/16 13:43:06;;;;;;;;;;;10.20;99.90;;;;;;5079310;28;19973;-64
2023/06/16 13:45:32;;;;;;;;;;;10.20;99.90;;;;;;5092126;28;19908;-62
2023/06/16 13:47:59;;;;;;;;;;;10.10;99.90;;;;;;5095875;28;19908;-64
2023/06/16 13:50:25;;;;;;;;;;;10.10;99.90;;;;;;5096307;28;20365;-62
2023/06/16 13:52:52;;;;;;;;;;;10.10;99.90;;;;;;5096194;28;19908;-62
2023/06/16 13:55:19;;;;;;;;;;;10.20;99.90;;;;;;5095638;28;19965;-63
2023/06/16 13:57:45;;;;;;;;;;;10.10;99.90;;;;;;5095998;28;19919;-62
2023/06/16 14:00:12;;;;;;;;;;;10.00;99.90;;;;;;5095791;28;19908;-64
2023/06/16 14:02:39;;;;;;;;;;;10.00;99.90;;;;;;5095631;28;19985;-64
2023/06/16 14:05:06;;;;;;;;;;;10.00;99.90;;;;;;5095092;28;19953;-64
2023/06/16 14:07:33;;;;;;;;;;;10.00;99.90;;;;;;5093675;28;20421;-62
2023/06/16 14:09:59;;;;;;;;;;;10.00;99.90;;;;;;5095663;28;19908;-62
2023/06/16 14:12:26;;;;;;;;;;;9.90;99.90;;;;;;5095804;28;19931;-63
2023/06/16 14:14:52;;;;;;;;;;;10.00;99.90;;;;;;5095846;28;19915;-61
2023/06/16 14:17:19;;;;;;;;;;;10.00;99.90;;;;;;5095714;28;20018;-62
2023/06/16 14:19:46;;;;;;;;;;;9.90;99.90;;;;;;5095487;28;19915;-62